Time,TemperatureF,DewpointF,PressureIn,WindDirection,WindDirectionDegrees,WindSpeedMPH,WindSpeedGustMPH,Humidity,HourlyPrecipIn,Conditions,Clouds,dailyrainin,SoftwareType,DateUTC
2013-01-02 00:03:00,12.0,0.0,29.91,ESE,111,3.0,7.0,60,0.00,,,0.00,weatherlink.com 1.10,2013-01-02 05:03:00,
2013-01-02 00:18:00,11.2,1.0,29.90,SSE,160,0.0,2.0,63,0.00,,,0.00,weatherlink.com 1.10,2013-01-02 05:18:00,
2013-01-02 00:33:00,10.7,1.0,29.90,ENE,66,1.0,4.0,64,0.00,,,0.00,weatherlink.com 1.10,2013-01-02 05:33:00,
2013-01-02 00:48:00,10.4,1.0,29.90,SE,133,0.0,3.0,67,0.00,,,0.00,weatherlink.com 1.10,2013-01-02 05:48:00,
2013-01-02 01:03:00,8.5,1.0,29.91,South,187,0.0,1.0,70,0.00,,,0.00,weatherlink.com 1.10,2013-01-02 06:03:00,
2013-01-02 01:18:00,7.3,0.0,29.92,SE,145,0.0,1.0,73,0.00,,,0.00,weatherlink.com 1.10,2013-01-02 06:18:00,
2013-01-02 01:33:00,6.1,0.0,29.92,East,100,1.0,1.0,75,0.00,,,0.00,weatherlink.com 1.10,2013-01-02 06:33:00,
2013-01-02 01:48:00,5.9,0.0,29.92,ESE,113,2.0,2.0,77,0.00,,,0.00,weatherlink.com 1.10,2013-01-02 06:48:00,
2013-01-02 02:03:00,6.1,0.0,29.93,NNE,29,0.0,2.0,77,0.00,,,0.00,weatherlink.com 1.10,2013-01-02 07:03:00,
2013-01-02 02:18:00,8.9,1.0,29.93,WNW,302,2.0,5.0,71,0.00,,,0.00,weatherlink.com 1.10,2013-01-02 07:18:00,
2013-01-02 02:33:00,10.3,2.0,29.93,NNW,347,1.0,8.0,68,0.00,,,0.00,weatherlink.com 1.10,2013-01-02 07:33:00,
2013-01-02 02:48:00,10.1,1.0,29.93,WNW,283,1.0,5.0,68,0.00,,,0.00,weatherlink.com 1.10,2013-01-02 07:48:00,
2013-01-02 03:03:00,10.2,2.0,29.93,NW,311,2.0,5.0,68,0.00,,,0.00,weatherlink.com 1.10,2013-01-02 08:03:00,
2013-01-02 03:19:00,10.2,2.0,29.92,NW,304,0.0,9.0,68,0.00,,,0.00,weatherlink.com 1.10,2013-01-02 08:19:00,
2013-01-02 03:34:00,10.3,2.0,29.92,WSW,250,1.0,7.0,68,0.00,,,0.00,weatherlink.com 1.10,2013-01-02 08:34:00,
2013-01-02 03:49:00,10.4,2.0,29.92,WNW,293,2.0,7.0,68,0.00,,,0.00,weatherlink.com 1.10,2013-01-02 08:49:00,
2013-01-02 04:04:00,9.9,2.0,29.91,West,275,1.0,8.0,69,0.00,,,0.00,weatherlink.com 1.10,2013-01-02 09:04:00,
2013-01-02 04:19:00,10.3,2.0,29.91,NW,316,1.0,6.0,68,0.00,,,0.00,weatherlink.com 1.10,2013-01-02 09:19:00,
2013-01-02 04:34:00,10.5,2.0,29.91,West,275,4.0,7.0,69,0.00,,,0.00,weatherlink.com 1.10,2013-01-02 09:34:00,
2013-01-02 04:49:00,10.6,3.0,29.91,WNW,290,3.0,7.0,70,0.00,,,0.00,weatherlink.com 1.10,2013-01-02 09:49:00,
2013-01-02 05:04:00,10.7,3.0,29.91,SW,228,1.0,9.0,70,0.00,,,0.00,weatherlink.com 1.10,2013-01-02 10:04:00,
2013-01-02 05:19:00,10.7,3.0,29.91,West,274,1.0,8.0,72,0.00,,,0.00,weatherlink.com 1.10,2013-01-02 10:19:00,
2013-01-02 05:34:00,10.8,4.0,29.91,SW,221,5.0,9.0,73,0.00,,,0.00,weatherlink.com 1.10,2013-01-02 10:34:00,
2013-01-02 05:49:00,10.7,4.0,29.91,WSW,245,2.0,8.0,74,0.00,,,0.00,weatherlink.com 1.10,2013-01-02 10:49:00,
2013-01-02 06:04:00,10.9,4.0,29.91,WNW,289,0.0,8.0,73,0.00,,,0.00,weatherlink.com 1.10,2013-01-02 11:04:00,
2013-01-02 06:19:00,11.2,4.0,29.91,WNW,287,5.0,10.0,73,0.00,,,0.00,weatherlink.com 1.10,2013-01-02 11:19:00,
2013-01-02 06:35:00,11.1,4.0,29.91,WNW,293,1.0,8.0,73,0.00,,,0.00,weatherlink.com 1.10,2013-01-02 11:35:00,
2013-01-02 06:50:00,10.7,4.0,29.90,West,281,2.0,5.0,74,0.00,,,0.00,weatherlink.com 1.10,2013-01-02 11:50:00,
2013-01-02 07:05:00,10.6,4.0,29.91,West,267,2.0,7.0,74,0.00,,,0.00,weatherlink.com 1.10,2013-01-02 12:05:00,
2013-01-02 07:20:00,10.9,4.0,29.90,West,262,3.0,6.0,74,0.00,,,0.00,weatherlink.com 1.10,2013-01-02 12:20:00,
2013-01-02 07:35:00,12.4,5.0,29.90,West,269,7.0,11.0,72,0.00,,,0.00,weatherlink.com 1.10,2013-01-02 12:35:00,
2013-01-02 07:50:00,13.1,5.0,29.90,West,278,5.0,15.0,71,0.00,,,0.00,weatherlink.com 1.10,2013-01-02 12:50:00,
2013-01-02 08:05:00,13.1,5.0,29.90,WSW,253,3.0,9.0,71,0.00,,,0.00,weatherlink.com 1.10,2013-01-02 13:05:00,
2013-01-02 08:20:00,13.5,6.0,29.90,West,278,6.0,17.0,71,0.00,,,0.00,weatherlink.com 1.10,2013-01-02 13:20:00,
2013-01-02 08:35:00,13.9,6.0,29.90,West,260,5.0,12.0,71,0.00,,,0.00,weatherlink.com 1.10,2013-01-02 13:35:00,
2013-01-02 08:53:00,14.3,7.0,29.90,SSW,208,5.0,12.0,71,0.00,,,0.00,weatherlink.com 1.10,2013-01-02 13:53:00,
2013-01-02 09:05:00,14.8,7.0,29.91,WNW,301,6.0,12.0,71,0.00,,,0.00,weatherlink.com 1.10,2013-01-02 14:05:00,
2013-01-02 09:20:00,15.2,7.0,29.92,WSW,248,6.0,15.0,71,0.00,,,0.00,weatherlink.com 1.10,2013-01-02 14:20:00,
2013-01-02 09:35:00,15.9,8.0,29.93,WNW,290,7.0,15.0,71,0.00,,,0.00,weatherlink.com 1.10,2013-01-02 14:35:00,
2013-01-02 09:50:00,16.5,9.0,29.93,WNW,284,8.0,13.0,71,0.00,,,0.00,weatherlink.com 1.10,2013-01-02 14:50:00,
2013-01-02 10:06:00,17.3,9.0,29.93,WSW,248,3.0,10.0,71,0.00,,,0.00,weatherlink.com 1.10,2013-01-02 15:06:00,
2013-01-02 10:21:00,17.9,10.0,29.93,SW,233,5.0,12.0,70,0.00,,,0.00,weatherlink.com 1.10,2013-01-02 15:21:00,
2013-01-02 10:36:00,18.6,10.0,29.92,WSW,245,4.0,8.0,69,0.00,,,0.00,weatherlink.com 1.10,2013-01-02 15:36:00,
2013-01-02 10:51:00,19.3,11.0,29.92,West,274,4.0,10.0,69,0.00,,,0.00,weatherlink.com 1.10,2013-01-02 15:51:00,
2013-01-02 11:06:00,20.4,11.0,29.91,West,280,3.0,13.0,68,0.00,,,0.00,weatherlink.com 1.10,2013-01-02 16:06:00,
2013-01-02 11:21:00,21.7,12.0,29.90,West,281,8.0,15.0,67,0.00,,,0.00,weatherlink.com 1.10,2013-01-02 16:21:00,
2013-01-02 11:36:00,22.8,13.0,29.90,West,259,7.0,14.0,66,0.00,,,0.00,weatherlink.com 1.10,2013-01-02 16:36:00,
2013-01-02 11:51:00,23.2,13.0,29.90,West,276,9.0,14.0,65,0.00,,,0.00,weatherlink.com 1.10,2013-01-02 16:51:00,
2013-01-02 12:06:00,23.7,13.0,29.89,WNW,295,3.0,14.0,64,0.00,,,0.00,weatherlink.com 1.10,2013-01-02 17:06:00,
2013-01-02 12:21:00,23.9,13.0,29.90,SW,232,8.0,16.0,64,0.00,,,0.00,weatherlink.com 1.10,2013-01-02 17:21:00,
2013-01-02 12:36:00,22.9,13.0,29.89,West,270,6.0,14.0,67,0.00,,,0.00,weatherlink.com 1.10,2013-01-02 17:36:00,
2013-01-02 12:51:00,22.6,14.0,29.90,SW,232,4.0,13.0,70,0.00,,,0.00,weatherlink.com 1.10,2013-01-02 17:51:00,
2013-01-02 13:06:00,22.3,14.0,29.90,WNW,287,8.0,15.0,71,0.00,,,0.00,weatherlink.com 1.10,2013-01-02 18:06:00,
2013-01-02 13:22:00,22.2,15.0,29.90,WSW,253,8.0,13.0,73,0.00,,,0.00,weatherlink.com 1.10,2013-01-02 18:22:00,
2013-01-02 13:37:00,22.2,15.0,29.91,NW,324,4.0,11.0,75,0.00,,,0.00,weatherlink.com 1.10,2013-01-02 18:37:00,
2013-01-02 13:52:00,22.3,16.0,29.92,West,260,2.0,11.0,75,0.00,,,0.00,weatherlink.com 1.10,2013-01-02 18:52:00,
2013-01-02 14:07:00,22.5,16.0,29.92,WNW,292,4.0,10.0,75,0.00,,,0.00,weatherlink.com 1.10,2013-01-02 19:07:00,
2013-01-02 14:22:00,22.7,16.0,29.93,West,281,1.0,10.0,76,0.00,,,0.00,weatherlink.com 1.10,2013-01-02 19:22:00,
2013-01-02 14:37:00,22.6,17.0,29.95,WNW,293,2.0,7.0,78,0.00,,,0.00,weatherlink.com 1.10,2013-01-02 19:37:00,
2013-01-02 15:07:00,21.8,16.0,29.95,North,354,1.0,9.0,78,0.00,,,0.00,weatherlink.com 1.10,2013-01-02 20:07:00,
2013-01-02 15:22:00,20.9,14.0,29.96,NNE,33,4.0,9.0,75,0.00,,,0.00,weatherlink.com 1.10,2013-01-02 20:22:00,
2013-01-02 15:37:00,19.8,13.0,29.97,WNW,294,5.0,10.0,74,0.00,,,0.00,weatherlink.com 1.10,2013-01-02 20:37:00,
2013-01-02 15:52:00,19.4,12.0,29.98,NNW,340,2.0,6.0,74,0.00,,,0.00,weatherlink.com 1.10,2013-01-02 20:52:00,
2013-01-02 16:07:00,19.0,12.0,29.99,WNW,300,3.0,7.0,73,0.00,,,0.00,weatherlink.com 1.10,2013-01-02 21:07:00,
2013-01-02 16:22:00,18.5,11.0,29.99,West,260,2.0,7.0,72,0.00,,,0.00,weatherlink.com 1.10,2013-01-02 21:22:00,
2013-01-02 16:38:00,18.0,10.0,30.00,North,6,4.0,7.0,71,0.00,,,0.00,weatherlink.com 1.10,2013-01-02 21:38:00,
2013-01-02 16:53:00,17.7,9.0,30.01,WNW,284,1.0,5.0,69,0.00,,,0.00,weatherlink.com 1.10,2013-01-02 21:53:00,
2013-01-02 17:08:00,17.0,9.0,30.02,West,276,2.0,5.0,70,0.00,,,0.00,weatherlink.com 1.10,2013-01-02 22:08:00,
2013-01-02 17:23:00,16.7,8.0,30.02,WSW,249,4.0,8.0,69,0.00,,,0.00,weatherlink.com 1.10,2013-01-02 22:23:00,
2013-01-02 17:38:00,16.5,8.0,30.02,West,277,2.0,9.0,69,0.00,,,0.00,weatherlink.com 1.10,2013-01-02 22:38:00,
2013-01-02 17:53:00,15.9,8.0,30.02,WSW,248,6.0,11.0,70,0.00,,,0.00,weatherlink.com 1.10,2013-01-02 22:53:00,
2013-01-02 18:08:00,15.5,7.0,30.03,WNW,302,6.0,11.0,70,0.00,,,0.00,weatherlink.com 1.10,2013-01-02 23:08:00,
2013-01-02 18:23:00,14.8,7.0,30.04,WNW,302,0.0,10.0,71,0.00,,,0.00,weatherlink.com 1.10,2013-01-02 23:23:00,
2013-01-02 18:38:00,13.7,6.0,30.05,WNW,298,0.0,5.0,71,0.00,,,0.00,weatherlink.com 1.10,2013-01-02 23:38:00,
2013-01-02 18:53:00,13.0,5.0,30.05,WNW,299,6.0,7.0,71,0.00,,,0.00,weatherlink.com 1.10,2013-01-02 23:53:00,
2013-01-02 19:08:00,13.2,5.0,30.06,WSW,252,9.0,9.0,69,0.00,,,0.00,weatherlink.com 1.10,2013-01-03 00:08:00,
2013-01-02 19:23:00,13.0,4.0,30.06,West,262,2.0,6.0,68,0.00,,,0.00,weatherlink.com 1.10,2013-01-03 00:23:00,
2013-01-02 19:38:00,12.2,4.0,30.07,SW,220,0.0,3.0,69,0.00,,,0.00,weatherlink.com 1.10,2013-01-03 00:38:00,
2013-01-02 19:54:00,11.5,4.0,30.07,West,273,1.0,6.0,71,0.00,,,0.00,weatherlink.com 1.10,2013-01-03 00:54:00,
2013-01-02 20:09:00,11.5,4.0,30.08,West,259,1.0,8.0,71,0.00,,,0.00,weatherlink.com 1.10,2013-01-03 01:09:00,
2013-01-02 20:24:00,11.2,4.0,30.08,West,264,2.0,6.0,71,0.00,,,0.00,weatherlink.com 1.10,2013-01-03 01:24:00,
2013-01-02 20:39:00,10.7,3.0,30.09,SW,226,6.0,10.0,72,0.00,,,0.00,weatherlink.com 1.10,2013-01-03 01:39:00,
2013-01-02 20:54:00,10.0,3.0,30.08,West,274,2.0,6.0,73,0.00,,,0.00,weatherlink.com 1.10,2013-01-03 01:54:00,
2013-01-02 21:09:00,9.4,3.0,30.09,West,270,6.0,9.0,74,0.00,,,0.00,weatherlink.com 1.10,2013-01-03 02:09:00,
2013-01-02 21:24:00,8.5,1.0,30.10,West,269,8.0,11.0,72,0.00,,,0.00,weatherlink.com 1.10,2013-01-03 02:24:00,
2013-01-02 21:39:00,7.8,0.0,30.11,NNE,23,3.0,8.0,71,0.00,,,0.00,weatherlink.com 1.10,2013-01-03 02:39:00,
2013-01-02 21:54:00,6.7,-1.0,30.11,West,274,3.0,9.0,70,0.00,,,0.00,weatherlink.com 1.10,2013-01-03 02:54:00,
2013-01-02 22:09:00,5.9,-2.0,30.11,WNW,289,2.0,6.0,71,0.00,,,0.00,weatherlink.com 1.10,2013-01-03 03:09:00,
2013-01-02 22:24:00,5.2,-2.0,30.10,NNE,16,0.0,8.0,71,0.00,,,0.00,weatherlink.com 1.10,2013-01-03 03:24:00,
2013-01-02 22:54:00,4.4,-3.0,30.09,NW,323,8.0,14.0,70,0.00,,,0.00,weatherlink.com 1.10,2013-01-03 03:54:00,
2013-01-02 23:09:00,3.8,-4.0,30.09,WSW,238,7.0,15.0,71,0.00,,,0.00,weatherlink.com 1.10,2013-01-03 04:09:00,
2013-01-02 23:25:00,3.7,-5.0,30.09,East,85,1.0,14.0,68,0.00,,,0.00,weatherlink.com 1.10,2013-01-03 04:25:00,
2013-01-02 23:40:00,3.7,-5.0,30.09,SE,136,1.0,9.0,66,0.00,,,0.00,weatherlink.com 1.10,2013-01-03 04:40:00,
2013-01-02 23:55:00,3.4,-6.0,30.10,East,88,1.0,6.0,64,0.00,,,0.00,weatherlink.com 1.10,2013-01-03 04:55:00,